| time (UTC) | temp C | wind direction | speed KPH | gust KPH | rain 1hr cm | rain 24hr cm | rain mn cm | humidity % | barometer mb |
| 20260505111605 | 16 | 315 | 6.4 | 14.5 | 0.00 | 0.13 | 0.03 | 53 | 1015.5 |
| 20260505101605 | 15 | 40 | 4.8 | 11.3 | 0.00 | 0.13 | 0.03 | 57 | 1015.9 |
| 20260505100003 | 13 | 17 | 8.0 | 19.3 | 0.00 | 0.13 | 0.03 | 59 | 1016.0 |
| 20260505094607 | 14 | 335 | 4.8 | 14.5 | 0.00 | 0.13 | 0.03 | 59 | 1015.9 |
| 20260505093100 | 14 | 15 | 6.4 | 14.5 | 0.00 | 0.13 | 0.03 | 60 | 1016.0 |
| 20260505091616 | 14 | 13 | 3.2 | 14.5 | 0.00 | 0.13 | 0.03 | 62 | 1016.1 |
| 20260505090104 | 13 | 26 | 6.4 | 16.1 | 0.00 | 0.13 | 0.03 | 65 | 1016.1 |
| 20260505090005 | 13 | 347 | 4.8 | 16.1 | 0.00 | 0.13 | 0.03 | 65 | 1016.1 |
| 20260505084607 | 13 | 82 | 6.4 | 16.1 | 0.00 | 0.13 | 0.03 | 66 | 1016.2 |
| 20260505083108 | 12 | 55 | 6.4 | 19.3 | 0.00 | 0.13 | 0.03 | 68 | 1016.2 |
| 20260505081600 | 12 | 5 | 4.8 | 12.9 | 0.00 | 0.13 | 0.03 | 73 | 1016.3 |
| 20260505080100 | 12 | 106 | 1.6 | 9.7 | 0.00 | 0.13 | 0.03 | 77 | 1016.2 |
| 20260505080008 | 12 | 112 | 1.6 | 14.5 | 0.00 | 0.13 | 0.03 | 77 | 1016.2 |
| 20260505074600 | 11 | 47 | 3.2 | 8.0 | 0.00 | 0.13 | 0.03 | 79 | 1016.2 |
| 20260505073103 | 11 | 355 | 3.2 | 9.7 | 0.00 | 0.13 | 0.03 | 81 | 1016.2 |
| 20260505071602 | 11 | 5 | 3.2 | 6.4 | 0.00 | 0.13 | 0.03 | 84 | 1016.4 |
| 20260505070107 | 10 | 30 | 1.6 | 8.0 | 0.00 | 0.13 | 0.03 | 86 | 1016.3 |
| 20260505070002 | 10 | 329 | 1.6 | 8.0 | 0.00 | 0.13 | 0.03 | 86 | 1016.3 |
| 20260505064600 | 10 | 11 | 1.6 | 8.0 | 0.00 | 0.13 | 0.03 | 87 | 1016.3 |
| 20260505063100 | 10 | 333 | 0.0 | 4.8 | 0.00 | 0.13 | 0.03 | 87 | 1016.3 |
| 20260505061625 | 10 | 355 | 1.6 | 6.4 | 0.00 | 0.13 | 0.03 | 87 | 1016.2 |
| 20260505060003 | 10 | 9 | 3.2 | 8.0 | 0.00 | 0.13 | 0.03 | 87 | 1016.1 |
| 20260505054600 | 10 | 22 | 4.8 | 9.7 | 0.00 | 0.13 | 0.03 | 87 | 1016.1 |
| 20260505053100 | 10 | 25 | 4.8 | 8.0 | 0.00 | 0.13 | 0.03 | 87 | 1016.1 |
| 20260505051600 | 10 | 22 | 1.6 | 12.9 | 0.00 | 0.13 | 0.03 | 87 | 1016.1 |
| 20260505041605 | 11 | 348 | 3.2 | 8.0 | 0.00 | 0.13 | 0.03 | 87 | 1015.8 |
| 20260505040104 | 11 | 69 | 1.6 | 6.4 | 0.00 | 0.13 | 0.03 | 87 | 1015.8 |
| 20260505040005 | 11 | 110 | 1.6 | 6.4 | 0.00 | 0.13 | 0.03 | 87 | 1015.8 |
| 20260505034611 | 11 | 39 | 1.6 | 6.4 | 0.00 | 0.13 | 0.03 | 88 | 1015.9 |
| 20260505033105 | 11 | 355 | 0.0 | 4.8 | 0.00 | 0.13 | 0.03 | 88 | 1015.8 |
| 20260505031600 | 11 | 355 | 0.0 | 4.8 | 0.00 | 0.13 | 0.03 | 88 | 1015.8 |
| 20260505030100 | 11 | 348 | 1.6 | 8.0 | 0.00 | 0.13 | 0.03 | 88 | 1015.8 |
| 20260505030005 | 11 | 13 | 1.6 | 8.0 | 0.00 | 0.13 | 0.03 | 88 | 1015.8 |
| 20260505024559 | 11 | 50 | 3.2 | 8.0 | 0.00 | 0.13 | 0.03 | 88 | 1015.8 |
| 20260505023100 | 11 | 60 | 3.2 | 8.0 | 0.00 | 0.13 | 0.03 | 89 | 1015.8 |
| 20260505021602 | 11 | 38 | 0.0 | 4.8 | 0.00 | 0.13 | 0.03 | 89 | 1015.8 |
| 20260505020100 | 11 | 47 | 3.2 | 9.7 | 0.00 | 0.13 | 0.03 | 89 | 1015.8 |
| 20260505020005 | 11 | 5 | 3.2 | 9.7 | 0.00 | 0.13 | 0.03 | 89 | 1015.8 |
| 20260505014608 | 11 | 18 | 3.2 | 6.4 | 0.00 | 0.13 | 0.03 | 89 | 1015.9 |
| 20260505013104 | 11 | 38 | 1.6 | 4.8 | 0.00 | 0.13 | 0.03 | 89 | 1016.1 |
| 20260505011618 | 11 | 360 | 1.6 | 6.4 | 0.00 | 0.13 | 0.03 | 90 | 1016.1 |
| 20260505010108 | 11 | 355 | 4.8 | 8.0 | 0.00 | 0.13 | 0.03 | 89 | 1016.2 |
| 20260505010002 | 11 | 18 | 4.8 | 8.0 | 0.00 | 0.13 | 0.03 | 90 | 1016.2 |
| 20260505004602 | 12 | 21 | 3.2 | 8.0 | 0.00 | 0.13 | 0.03 | 90 | 1016.3 |
| 20260505003059 | 12 | 20 | 3.2 | 8.0 | 0.00 | 0.13 | 0.03 | 90 | 1016.3 |
| 20260505001601 | 12 | 32 | 3.2 | 6.4 | 0.03 | 0.13 | 0.03 | 89 | 1016.4 |
| 20260505000108 | 12 | 15 | 1.6 | 3.2 | 0.03 | 0.13 | 0.03 | 89 | 1016.5 |
| 20260505000003 | 12 | 25 | 1.6 | 3.2 | 0.03 | 0.13 | 0.03 | 89 | 1016.5 |
| 20260504234502 | 12 | 66 | 0.0 | 1.6 | 0.03 | 0.13 | 0.03 | 89 | 1016.5 |
| 20260504233002 | 12 | 59 | 0.0 | 0.0 | 0.03 | 0.13 | 0.03 | 89 | 1016.5 |
| 20260504231502 | 12 | 59 | 0.0 | 0.0 | 0.00 | 0.10 | 0.00 | 89 | 1016.5 |
| 20260504230006 | 12 | 16 | 0.0 | 0.0 | 0.00 | 0.10 | 0.00 | 89 | 1016.4 |
| 20260504224502 | 12 | 16 | 0.0 | 0.0 | 0.00 | 0.10 | 0.10 | 88 | 1016.5 |
| 20260504223002 | 12 | 29 | 0.0 | 4.8 | 0.03 | 0.10 | 0.10 | 88 | 1016.5 |
| 20260504221502 | 12 | 26 | 3.2 | 8.0 | 0.05 | 0.10 | 0.10 | 88 | 1016.6 |
| 20260504220009 | 13 | 22 | 3.2 | 8.0 | 0.05 | 0.10 | 0.10 | 87 | 1016.5 |
| 20260504214501 | 13 | 5 | 4.8 | 8.0 | 0.05 | 0.10 | 0.10 | 86 | 1016.6 |
| 20260504213002 | 13 | 355 | 4.8 | 9.7 | 0.05 | 0.08 | 0.08 | 85 | 1016.6 |
| 20260504211502 | 13 | 344 | 3.2 | 11.3 | 0.05 | 0.05 | 0.05 | 85 | 1016.6 |
| 20260504210004 | 13 | 9 | 4.8 | 14.5 | 0.05 | 0.05 | 0.05 | 85 | 1016.5 |
| 20260504204501 | 14 | 44 | 1.6 | 4.8 | 0.05 | 0.05 | 0.05 | 84 | 1016.4 |
| 20260504203002 | 14 | 26 | 1.6 | 6.4 | 0.05 | 0.05 | 0.05 | 83 | 1016.4 |
| 20260504201501 | 14 | 320 | 0.0 | 4.8 | 0.00 | 0.00 | 0.00 | 83 | 1016.2 |
| 20260504200006 | 14 | 13 | 0.0 | 4.8 | 0.00 | 0.00 | 0.00 | 83 | 1016.1 |
| 20260504194502 | 15 | 276 | 0.0 | 1.6 | 0.00 | 0.00 | 0.00 | 82 | 1016.0 |
| 20260504193002 | 15 | 276 | 0.0 | 1.6 | 0.00 | 0.00 | 0.00 | 80 | 1015.8 |
| 20260504191502 | 15 | 307 | 0.0 | 3.2 | 0.00 | 0.00 | 0.00 | 80 | 1015.7 |
| 20260504190010 | 15 | 311 | 0.0 | 1.6 | 0.00 | 0.00 | 0.00 | 79 | 1015.6 |
| 20260504184504 | 15 | 281 | 0.0 | 4.8 | 0.00 | 0.00 | 0.00 | 78 | 1015.5 |
| 20260504183001 | 15 | 264 | 4.8 | 11.3 | 0.00 | 0.00 | 0.00 | 78 | 1015.5 |
| 20260504181502 | 16 | 333 | 3.2 | 8.0 | 0.00 | 0.00 | 0.00 | 77 | 1015.4 |
| 20260504180004 | 16 | 344 | 3.2 | 8.0 | 0.00 | 0.00 | 0.00 | 74 | 1015.3 |
| 20260504174502 | 16 | 157 | 4.8 | 11.3 | 0.00 | 0.00 | 0.00 | 73 | 1015.2 |
| 20260504173001 | 16 | 143 | 4.8 | 9.7 | 0.00 | 0.00 | 0.00 | 75 | 1015.2 |
| 20260504171506 | 16 | 168 | 6.4 | 11.3 | 0.00 | 0.00 | 0.00 | 73 | 1015.4 |